Time;durP1;ratioP1;P1;durP2;ratioP2;P2;SDS_P1;SDS_P2;PMS_P1;PMS_P2;Temp;Humidity;BMP_temperature;BMP_pressure;BME280_temperature;BME280_humidity;BME280_pressure;Samples;Min_cycle;Max_cycle;Signal;HPM_P1;HPM_P2
2022/08/28 00:01:58;;;;;;;2.63;1.77;;;21.70;99.90;;;;;;4945363;29;20182;-77
2022/08/28 00:04:24;;;;;;;2.60;1.40;;;21.70;99.90;;;;;;4945421;29;20484;-77
2022/08/28 00:06:50;;;;;;;3.45;1.67;;;21.70;99.90;;;;;;4941492;29;20201;-73
2022/08/28 00:09:15;;;;;;;2.60;1.80;;;21.70;99.90;;;;;;4955423;29;20201;-72
2022/08/28 00:11:43;;;;;;;1.92;1.33;;;21.70;99.90;;;;;;4951993;29;20190;-75
2022/08/28 00:14:10;;;;;;;2.38;1.58;;;21.70;99.90;;;;;;4950735;29;20189;-74
2022/08/28 00:16:36;;;;;;;2.05;1.50;;;21.70;99.90;;;;;;4953186;29;20198;-77
2022/08/28 00:19:02;;;;;;;1.80;1.42;;;21.60;99.90;;;;;;4954988;29;20194;-77
2022/08/28 00:21:28;;;;;;;1.60;1.30;;;21.60;99.90;;;;;;4949120;29;20202;-78
2022/08/28 00:23:54;;;;;;;1.70;1.38;;;21.60;99.90;;;;;;4952608;29;20257;-70
2022/08/28 00:29:07;;;;;;;4.65;1.58;;;21.60;99.90;;;;;;4935234;29;20197;-73
2022/08/28 00:31:38;;;;;;;2.13;1.40;;;21.60;99.90;;;;;;4951265;29;20174;-75
2022/08/28 00:34:10;;;;;;;2.22;1.58;;;21.60;99.90;;;;;;4954750;29;20214;-74
2022/08/28 00:36:39;;;;;;;2.53;1.30;;;21.60;99.90;;;;;;4919537;29;20210;-77
2022/08/28 00:39:06;;;;;;;2.72;1.38;;;21.60;99.90;;;;;;4914908;29;20209;-74
2022/08/28 00:41:37;;;;;;;1.90;1.23;;;21.60;99.90;;;;;;4934660;29;20183;-74
2022/08/28 00:44:08;;;;;;;2.75;1.83;;;21.60;99.90;;;;;;4912447;29;20349;-75
2022/08/28 00:46:34;;;;;;;2.60;1.50;;;21.60;99.90;;;;;;4937345;29;20188;-77
2022/08/28 00:49:00;;;;;;;2.45;1.48;;;21.60;99.90;;;;;;4945202;29;20237;-75
2022/08/28 00:54:11;;;;;;;2.58;1.52;;;21.50;99.90;;;;;;4939381;29;20221;-75
2022/08/28 00:56:39;;;;;;;2.10;1.63;;;21.50;99.90;;;;;;4933493;29;20206;-77
2022/08/28 00:59:11;;;;;;;3.45;1.70;;;21.50;99.90;;;;;;4935218;29;20190;-73
2022/08/28 01:01:40;;;;;;;3.38;1.60;;;21.50;99.90;;;;;;4937635;29;20174;-74
2022/08/28 01:04:06;;;;;;;6.35;1.75;;;21.50;99.90;;;;;;4933305;29;20226;-77
2022/08/28 01:06:35;;;;;;;2.97;1.50;;;21.50;99.90;;;;;;4937154;29;20178;-68
2022/08/28 01:09:03;;;;;;;2.63;1.60;;;21.50;99.90;;;;;;4948090;29;20195;-77
2022/08/28 01:11:32;;;;;;;3.38;1.85;;;21.50;99.90;;;;;;4941341;29;20169;-76
2022/08/28 01:14:01;;;;;;;2.75;1.40;;;21.50;99.90;;;;;;4943226;29;20249;-75
2022/08/28 01:16:33;;;;;;;2.60;1.27;;;21.50;99.90;;;;;;4953985;29;20182;-72
2022/08/28 01:18:59;;;;;;;2.13;1.80;;;21.50;99.90;;;;;;4933680;29;20186;-76
2022/08/28 01:21:33;;;;;;;2.40;1.40;;;21.50;99.90;;;;;;4939052;29;20280;-73
2022/08/28 01:24:03;;;;;;;2.78;1.75;;;21.50;99.90;;;;;;4945368;29;20197;-67
2022/08/28 01:26:31;;;;;;;2.22;1.50;;;21.50;99.90;;;;;;4930539;29;20274;-77
2022/08/28 01:28:58;;;;;;;3.05;1.50;;;21.40;99.90;;;;;;4968066;29;20249;-74
2022/08/28 01:31:30;;;;;;;1.90;1.30;;;21.40;99.90;;;;;;4938315;29;20246;-75
2022/08/28 01:33:58;;;;;;;2.63;1.40;;;21.40;99.90;;;;;;4949434;29;20166;-76
2022/08/28 01:36:24;;;;;;;2.38;1.42;;;21.40;99.90;;;;;;4945880;29;20205;-76
2022/08/28 01:39:02;;;;;;;1.65;1.40;;;21.40;99.90;;;;;;4950693;29;20205;-75
2022/08/28 01:41:28;;;;;;;4.80;1.73;;;21.40;99.90;;;;;;4947968;29;20182;-73
2022/08/28 01:43:54;;;;;;;2.22;1.40;;;21.40;99.90;;;;;;4948252;29;20225;-76
2022/08/28 01:46:22;;;;;;;2.28;1.50;;;21.40;99.90;;;;;;4946988;29;20174;-74
2022/08/28 01:48:48;;;;;;;2.50;1.45;;;21.40;99.90;;;;;;4935784;29;20183;-76
2022/08/28 01:51:16;;;;;;;2.35;1.50;;;21.40;99.90;;;;;;4954577;29;20216;-69
2022/08/28 01:53:42;;;;;;;2.72;1.60;;;21.40;99.90;;;;;;4955263;29;20182;-75
2022/08/28 01:56:13;;;;;;;2.45;1.20;;;21.30;99.90;;;;;;4954446;29;20217;-68
2022/08/28 01:58:39;;;;;;;3.78;1.60;;;21.30;99.90;;;;;;4936770;29;20217;-76
2022/08/28 02:01:17;;;;;;;2.08;1.60;;;21.30;99.90;;;;;;4953250;29;20182;-67
2022/08/28 02:03:43;;;;;;;2.63;1.38;;;21.30;99.90;;;;;;4946584;29;20185;-76
2022/08/28 02:06:09;;;;;;;2.65;1.40;;;21.30;99.90;;;;;;4958954;29;20174;-68
2022/08/28 02:08:40;;;;;;;2.33;1.40;;;21.30;99.90;;;;;;4926499;29;20223;-76
2022/08/28 02:11:08;;;;;;;2.42;1.40;;;21.30;99.90;;;;;;4955916;29;20191;-72
2022/08/28 02:13:36;;;;;;;2.25;1.30;;;21.30;99.90;;;;;;4956221;29;20240;-75
2022/08/28 02:16:05;;;;;;;2.13;1.17;;;21.30;99.90;;;;;;4938395;29;20291;-74
2022/08/28 02:18:31;;;;;;;2.10;1.10;;;21.30;99.90;;;;;;4944887;29;20177;-76
2022/08/28 02:20:57;;;;;;;2.80;1.25;;;21.30;99.90;;;;;;4935200;29;20178;-72
2022/08/28 02:23:27;;;;;;;1.58;1.17;;;21.20;99.90;;;;;;4950009;29;20243;-73
2022/08/28 02:25:53;;;;;;;2.03;1.30;;;21.20;99.90;;;;;;4929896;29;20209;-75
2022/08/28 02:28:18;;;;;;;2.28;1.23;;;21.20;99.90;;;;;;4953921;29;20181;-70
2022/08/28 02:30:49;;;;;;;3.33;1.30;;;21.20;99.90;;;;;;4936473;29;20173;-72
2022/08/28 02:33:15;;;;;;;3.17;1.30;;;21.20;99.90;;;;;;4928975;29;20206;-74
2022/08/28 02:35:42;;;;;;;3.15;1.27;;;21.20;99.90;;;;;;4937946;29;20402;-73
2022/08/28 02:38:08;;;;;;;1.63;1.10;;;21.10;99.90;;;;;;4931327;29;20206;-70
2022/08/28 02:40:37;;;;;;;2.30;1.00;;;21.10;99.90;;;;;;4944083;29;20229;-75
2022/08/28 02:43:05;;;;;;;3.65;1.27;;;21.10;99.90;;;;;;4936179;29;20265;-76
2022/08/28 02:45:31;;;;;;;1.75;1.15;;;21.10;99.90;;;;;;4946616;29;20268;-72
2022/08/28 02:47:57;;;;;;;1.67;1.30;;;21.10;99.90;;;;;;4952938;28;20201;-74
2022/08/28 02:50:25;;;;;;;2.78;1.25;;;21.10;99.90;;;;;;4953076;29;20186;-75
2022/08/28 02:52:53;;;;;;;2.38;1.30;;;21.10;99.90;;;;;;4944965;29;20183;-76
2022/08/28 02:55:23;;;;;;;2.88;1.10;;;21.10;99.90;;;;;;4941632;29;20205;-75
2022/08/28 02:57:49;;;;;;;2.75;0.90;;;21.10;99.90;;;;;;4950316;28;20194;-70
2022/08/28 03:00:21;;;;;;;1.65;1.00;;;21.10;99.90;;;;;;4950950;29;20210;-72
2022/08/28 03:02:48;;;;;;;2.42;1.00;;;21.00;99.90;;;;;;4946899;29;20229;-72
2022/08/28 03:05:19;;;;;;;1.80;1.20;;;21.00;99.90;;;;;;4953264;29;20182;-71
2022/08/28 03:07:44;;;;;;;2.13;1.20;;;21.00;99.90;;;;;;4955986;29;20257;-74
2022/08/28 03:10:10;;;;;;;1.90;1.02;;;21.00;99.90;;;;;;4963783;29;20209;-76
2022/08/28 03:12:38;;;;;;;3.10;1.17;;;21.00;99.90;;;;;;4941616;29;20214;-68
2022/08/28 03:15:06;;;;;;;2.45;1.40;;;21.00;99.90;;;;;;4936337;29;20194;-69
2022/08/28 03:17:33;;;;;;;3.85;1.42;;;20.90;99.90;;;;;;4955732;29;20165;-76
2022/08/28 03:19:59;;;;;;;2.13;1.20;;;20.90;99.90;;;;;;4936813;29;20194;-72
2022/08/28 03:25:11;;;;;;;2.58;1.10;;;20.90;99.90;;;;;;4931438;29;20192;-73
2022/08/28 03:27:37;;;;;;;2.58;1.20;;;20.80;99.90;;;;;;4951969;29;20237;-73
2022/08/28 03:30:09;;;;;;;2.38;1.25;;;20.80;99.90;;;;;;4939192;29;20265;-72
2022/08/28 03:32:34;;;;;;;2.55;1.20;;;20.80;99.90;;;;;;4931291;29;20159;-72
2022/08/28 03:35:00;;;;;;;3.28;1.10;;;20.80;99.90;;;;;;4955243;29;20190;-75
2022/08/28 03:37:26;;;;;;;2.28;1.00;;;20.80;99.90;;;;;;4936969;29;20197;-76
2022/08/28 03:39:51;;;;;;;3.13;1.20;;;20.70;99.90;;;;;;4958069;29;20190;-75
2022/08/28 03:42:19;;;;;;;3.55;1.30;;;20.70;99.90;;;;;;4958200;29;20190;-74
2022/08/28 03:44:47;;;;;;;3.00;1.20;;;20.70;99.90;;;;;;4953839;29;20230;-75
2022/08/28 03:47:14;;;;;;;2.22;0.93;;;20.70;99.90;;;;;;4956605;29;20205;-73
2022/08/28 03:49:39;;;;;;;2.00;1.05;;;20.60;99.90;;;;;;4954999;29;20213;-70
2022/08/28 03:52:07;;;;;;;6.15;1.20;;;20.60;99.90;;;;;;4933449;29;20250;-76
2022/08/28 03:54:33;;;;;;;3.45;1.10;;;20.50;99.90;;;;;;4950361;29;20228;-70
2022/08/28 03:57:01;;;;;;;2.05;0.85;;;20.50;99.90;;;;;;4955441;29;20198;-70
2022/08/28 03:59:27;;;;;;;3.00;1.10;;;20.50;99.90;;;;;;4954480;29;20193;-70
2022/08/28 04:01:53;;;;;;;3.15;1.25;;;20.50;99.90;;;;;;4935327;29;20272;-74
2022/08/28 04:04:19;;;;;;;2.28;1.25;;;20.40;99.90;;;;;;4934266;29;20206;-76
2022/08/28 04:06:47;;;;;;;2.80;0.93;;;20.50;99.90;;;;;;4934584;29;20183;-75
2022/08/28 04:09:13;;;;;;;2.85;1.25;;;20.40;99.90;;;;;;4932015;29;20189;-74
2022/08/28 04:11:42;;;;;;;2.30;1.10;;;20.40;99.90;;;;;;4934762;29;20206;-73
2022/08/28 04:14:11;;;;;;;2.45;1.08;;;20.40;99.90;;;;;;4958235;29;20188;-68
2022/08/28 04:16:37;;;;;;;3.13;1.08;;;20.40;99.90;;;;;;4935120;28;20221;-73
2022/08/28 04:19:03;;;;;;;2.13;0.90;;;20.40;99.90;;;;;;4934966;29;20178;-75
2022/08/28 04:21:33;;;;;;;2.28;1.02;;;20.30;99.90;;;;;;4953091;29;20202;-71
2022/08/28 04:23:59;;;;;;;3.25;1.10;;;20.30;99.90;;;;;;4935530;29;20253;-69
2022/08/28 04:26:26;;;;;;;2.15;1.15;;;20.30;99.90;;;;;;4953706;29;20275;-75
2022/08/28 04:28:52;;;;;;;2.05;1.00;;;20.30;99.90;;;;;;4938035;29;20186;-74
2022/08/28 04:31:17;;;;;;;2.45;1.02;;;20.30;99.90;;;;;;4952368;29;20202;-73
2022/08/28 04:33:43;;;;;;;2.15;1.10;;;20.30;99.90;;;;;;4956018;29;20276;-72
2022/08/28 04:36:18;;;;;;;2.00;0.85;;;20.30;99.90;;;;;;4939079;29;20202;-73
2022/08/28 04:38:47;;;;;;;2.15;0.90;;;20.30;99.90;;;;;;4938506;29;20237;-73
2022/08/28 04:41:15;;;;;;;2.22;0.90;;;20.20;99.90;;;;;;4939181;29;20259;-71
2022/08/28 04:43:44;;;;;;;1.45;0.95;;;20.20;99.90;;;;;;4952570;29;20205;-75
2022/08/28 04:46:13;;;;;;;2.22;1.13;;;20.20;99.90;;;;;;4953474;29;20178;-67
2022/08/28 04:48:42;;;;;;;1.95;0.80;;;20.10;99.90;;;;;;4937256;29;20190;-75
2022/08/28 04:51:10;;;;;;;2.15;1.10;;;20.10;99.90;;;;;;4935245;29;20226;-75
2022/08/28 04:53:37;;;;;;;3.47;1.05;;;20.10;99.90;;;;;;4959421;29;20166;-72
2022/08/28 04:56:05;;;;;;;2.63;1.00;;;20.10;99.90;;;;;;4949635;29;20194;-71
2022/08/28 04:58:36;;;;;;;5.30;1.02;;;20.10;99.90;;;;;;4948460;29;20284;-73
2022/08/28 05:01:08;;;;;;;2.67;1.25;;;20.10;99.90;;;;;;4950803;29;20186;-72
2022/08/28 05:03:34;;;;;;;2.97;1.10;;;20.00;99.90;;;;;;4938426;29;20210;-75
2022/08/28 05:06:01;;;;;;;4.32;1.23;;;20.10;99.90;;;;;;4956081;29;20177;-76
2022/08/28 05:08:28;;;;;;;1.85;1.10;;;20.10;99.90;;;;;;4930588;29;20190;-75
2022/08/28 05:10:57;;;;;;;4.93;1.20;;;20.00;99.90;;;;;;4937619;29;20197;-75
2022/08/28 05:13:23;;;;;;;2.75;1.02;;;20.00;99.90;;;;;;4951307;29;20183;-72
2022/08/28 05:15:50;;;;;;;2.65;1.23;;;20.00;99.90;;;;;;4930086;29;20189;-74
2022/08/28 05:18:18;;;;;;;2.42;1.20;;;20.00;99.90;;;;;;4954495;29;20173;-72
2022/08/28 05:20:46;;;;;;;2.70;0.93;;;20.00;99.90;;;;;;4954210;29;20178;-74
2022/08/28 05:23:14;;;;;;;1.88;0.95;;;20.00;99.90;;;;;;4950968;29;20233;-76
2022/08/28 05:25:43;;;;;;;3.13;1.20;;;20.00;99.90;;;;;;4942411;29;20190;-75
2022/08/28 05:28:10;;;;;;;1.77;1.00;;;20.00;99.90;;;;;;4927989;29;20257;-70
2022/08/28 05:30:40;;;;;;;2.38;1.30;;;20.00;99.90;;;;;;4935957;29;20190;-73
2022/08/28 05:33:08;;;;;;;1.65;1.10;;;20.00;99.90;;;;;;4932971;29;20187;-75
2022/08/28 05:35:36;;;;;;;2.47;1.27;;;20.00;99.90;;;;;;4926288;29;20201;-75
2022/08/28 05:38:04;;;;;;;4.22;1.23;;;20.00;99.90;;;;;;4954153;29;20186;-74
2022/08/28 05:40:30;;;;;;;3.00;1.10;;;20.00;99.90;;;;;;4941261;29;20182;-74
2022/08/28 05:43:01;;;;;;;3.00;1.55;;;20.00;99.90;;;;;;4937913;29;20195;-75
2022/08/28 05:45:27;;;;;;;2.90;1.23;;;20.00;99.90;;;;;;4936871;29;20227;-75
2022/08/28 05:47:54;;;;;;;3.03;1.40;;;20.00;99.90;;;;;;4951564;29;20182;-74
2022/08/28 05:50:22;;;;;;;3.15;1.60;;;20.00;99.90;;;;;;4930870;29;20186;-73
2022/08/28 05:52:48;;;;;;;3.78;1.50;;;20.00;99.90;;;;;;4942953;29;20223;-71
2022/08/28 05:55:14;;;;;;;3.10;1.50;;;19.90;99.90;;;;;;4933057;28;20214;-69
2022/08/28 05:57:40;;;;;;;3.03;1.30;;;19.90;99.90;;;;;;4953334;29;20182;-74
2022/08/28 06:00:11;;;;;;;3.97;1.70;;;19.90;99.90;;;;;;4946231;29;20216;-72
2022/08/28 06:02:41;;;;;;;3.15;1.33;;;20.00;99.90;;;;;;4954308;29;20178;-74
2022/08/28 06:05:08;;;;;;;2.55;1.40;;;20.00;99.90;;;;;;4953153;29;20209;-73
2022/08/28 06:07:33;;;;;;;3.40;1.48;;;20.00;99.90;;;;;;4947071;29;20225;-75
2022/08/28 06:10:02;;;;;;;6.50;2.70;;;20.00;99.90;;;;;;4948458;29;20209;-67
2022/08/28 06:12:27;;;;;;;5.90;2.45;;;20.00;99.90;;;;;;4948667;29;20213;-75
2022/08/28 06:14:53;;;;;;;3.50;2.20;;;20.00;99.90;;;;;;4933385;29;20194;-74
2022/08/28 06:17:19;;;;;;;3.95;2.47;;;20.00;99.90;;;;;;4951215;29;20194;-73
2022/08/28 06:19:46;;;;;;;4.00;2.08;;;20.00;99.90;;;;;;4949093;29;20202;-70
2022/08/28 06:22:14;;;;;;;3.22;2.08;;;20.00;99.90;;;;;;4948988;29;20175;-70
2022/08/28 06:24:40;;;;;;;3.83;1.90;;;20.10;99.90;;;;;;4947382;29;20275;-66
2022/08/28 06:27:08;;;;;;;6.88;2.47;;;20.10;99.90;;;;;;4943159;29;20225;-75
2022/08/28 06:29:36;;;;;;;3.47;2.00;;;20.10;99.90;;;;;;4934891;29;20169;-71
2022/08/28 06:32:04;;;;;;;4.50;1.85;;;20.20;99.90;;;;;;4949712;29;20217;-70
2022/08/28 06:34:30;;;;;;;3.85;2.20;;;20.20;99.90;;;;;;4944693;29;20186;-72
2022/08/28 06:36:58;;;;;;;4.32;2.00;;;20.20;99.90;;;;;;4951268;29;20182;-77
2022/08/28 06:39:24;;;;;;;6.53;2.25;;;20.30;99.90;;;;;;4952458;29;20181;-75
2022/08/28 06:41:50;;;;;;;5.85;2.80;;;20.30;99.90;;;;;;4945953;29;20240;-76
2022/08/28 06:44:20;;;;;;;6.30;2.50;;;20.30;99.90;;;;;;4943740;29;20213;-76
2022/08/28 06:46:48;;;;;;;5.05;2.42;;;20.40;99.90;;;;;;4953024;29;20209;-75
2022/08/28 06:49:16;;;;;;;5.45;2.50;;;20.40;99.90;;;;;;4931129;29;20178;-76
2022/08/28 06:51:42;;;;;;;4.70;2.65;;;20.40;99.90;;;;;;4939111;29;20175;-77
2022/08/28 06:54:08;;;;;;;6.70;2.50;;;20.50;99.90;;;;;;4944139;29;20197;-75
2022/08/28 06:56:34;;;;;;;4.72;2.60;;;20.40;99.90;;;;;;4935794;29;20212;-75
2022/08/28 06:59:00;;;;;;;4.85;2.42;;;20.40;99.90;;;;;;4931733;29;20214;-75
2022/08/28 07:01:29;;;;;;;3.65;2.20;;;20.40;99.90;;;;;;4947249;29;20219;-76
2022/08/28 07:03:58;;;;;;;4.60;2.30;;;20.50;99.90;;;;;;4952097;29;20257;-76
2022/08/28 07:06:24;;;;;;;4.55;2.40;;;20.50;99.90;;;;;;4949599;29;20174;-76
2022/08/28 07:08:56;;;;;;;5.03;2.55;;;20.50;99.90;;;;;;4962213;29;20182;-75
2022/08/28 07:11:28;;;;;;;6.57;2.42;;;20.50;99.90;;;;;;4919294;29;20183;-76
2022/08/28 07:13:57;;;;;;;5.50;3.20;;;20.50;99.90;;;;;;4916901;29;20206;-75
2022/08/28 07:16:29;;;;;;;7.15;2.75;;;20.50;99.90;;;;;;4943418;29;20182;-75
2022/08/28 07:18:58;;;;;;;6.53;2.72;;;20.50;99.90;;;;;;4929723;29;20178;-74
2022/08/28 07:21:24;;;;;;;6.45;2.65;;;20.50;99.90;;;;;;4950712;29;20185;-73
2022/08/28 07:23:50;;;;;;;4.60;2.72;;;20.50;99.90;;;;;;4951339;29;20217;-75
2022/08/28 07:26:22;;;;;;;5.82;2.42;;;20.60;99.90;;;;;;4928035;29;20198;-73
2022/08/28 07:28:51;;;;;;;4.35;2.22;;;20.60;99.90;;;;;;4935326;29;20186;-74
2022/08/28 07:31:27;;;;;;;3.25;2.40;;;20.60;99.90;;;;;;4949249;29;20183;-75
2022/08/28 07:33:54;;;;;;;10.15;5.65;;;20.60;99.90;;;;;;4938052;29;20233;-75
2022/08/28 07:36:25;;;;;;;6.47;3.97;;;20.70;99.90;;;;;;4947501;29;20193;-75
2022/08/28 07:38:54;;;;;;;7.95;3.65;;;20.70;99.90;;;;;;4935891;29;20218;-74
2022/08/28 07:41:28;;;;;;;6.40;2.97;;;20.80;99.90;;;;;;4954263;29;20182;-75
2022/08/28 07:46:39;;;;;;;4.57;2.60;;;20.90;99.90;;;;;;4938867;29;20177;-76
2022/08/28 07:49:07;;;;;;;5.90;2.90;;;20.90;99.90;;;;;;4936948;29;20209;-76
2022/08/28 07:51:33;;;;;;;4.20;2.40;;;20.90;99.90;;;;;;4951222;29;20209;-75
2022/08/28 07:54:00;;;;;;;5.32;2.65;;;21.00;99.90;;;;;;4956255;28;20197;-75
2022/08/28 07:56:29;;;;;;;5.15;2.60;;;21.00;99.90;;;;;;4939210;29;20166;-74
2022/08/28 07:59:00;;;;;;;7.20;2.50;;;21.00;99.90;;;;;;4954293;29;20177;-77
2022/08/28 08:01:28;;;;;;;3.92;2.17;;;21.10;99.90;;;;;;4957154;29;20189;-76
2022/08/28 08:03:57;;;;;;;5.80;2.47;;;21.10;99.90;;;;;;4954157;29;20301;-74
2022/08/28 08:06:27;;;;;;;5.22;2.58;;;21.10;99.90;;;;;;4944477;29;20178;-73
2022/08/28 08:08:53;;;;;;;5.55;2.58;;;21.10;99.90;;;;;;4940538;29;20178;-75
2022/08/28 08:11:22;;;;;;;6.40;2.72;;;21.10;99.90;;;;;;4952600;29;20190;-75
2022/08/28 08:13:50;;;;;;;7.00;2.78;;;21.10;99.90;;;;;;4956244;29;20178;-74
2022/08/28 08:16:18;;;;;;;4.50;2.60;;;21.10;99.90;;;;;;4943589;29;20206;-77
2022/08/28 08:18:48;;;;;;;4.72;2.40;;;21.10;99.90;;;;;;4954472;28;20205;-75
2022/08/28 08:21:18;;;;;;;4.65;2.33;;;21.10;99.90;;;;;;4940079;29;20185;-74
2022/08/28 08:23:44;;;;;;;6.00;2.50;;;21.10;99.90;;;;;;4945608;29;20274;-76
2022/08/28 08:26:16;;;;;;;6.82;2.50;;;21.10;99.90;;;;;;4955258;29;20186;-76
2022/08/28 08:28:45;;;;;;;3.97;2.03;;;21.20;99.90;;;;;;4953999;29;20226;-77
2022/08/28 08:31:20;;;;;;;4.63;2.33;;;21.20;99.90;;;;;;4936730;29;20182;-75
2022/08/28 08:33:50;;;;;;;6.10;2.40;;;21.20;99.90;;;;;;4947459;29;20181;-75
2022/08/28 08:36:18;;;;;;;5.00;2.60;;;21.20;99.90;;;;;;4947925;29;20197;-75
2022/08/28 08:38:45;;;;;;;5.40;2.60;;;21.30;99.90;;;;;;4932432;29;20193;-76
2022/08/28 08:41:16;;;;;;;5.38;2.75;;;21.30;99.90;;;;;;4947778;29;20768;-75
2022/08/28 08:43:54;;;;;;;7.28;2.70;;;21.30;99.90;;;;;;4937081;29;20212;-76
2022/08/28 08:46:39;;;;;;;6.93;2.75;;;21.40;99.90;;;;;;4928952;29;20213;-77
2022/08/28 08:49:15;;;;;;;7.80;2.72;;;21.40;99.90;;;;;;4930945;29;20185;-76
2022/08/28 08:51:45;;;;;;;6.25;2.72;;;21.50;99.90;;;;;;4946211;29;20208;-76
2022/08/28 08:54:15;;;;;;;4.03;2.40;;;21.40;99.90;;;;;;4945499;29;20193;-75
2022/08/28 08:56:48;;;;;;;5.15;2.55;;;21.50;99.90;;;;;;4947293;29;20178;-76
2022/08/28 08:59:20;;;;;;;3.22;2.35;;;21.50;99.90;;;;;;4932027;29;20198;-76
2022/08/28 09:02:04;;;;;;;3.72;2.03;;;21.60;99.90;;;;;;4946263;29;20174;-75
2022/08/28 09:04:29;;;;;;;4.82;2.17;;;21.70;99.90;;;;;;4944070;29;20281;-76
2022/08/28 09:07:18;;;;;;;4.85;2.35;;;21.80;99.90;;;;;;4928207;29;20186;-77
2022/08/28 09:09:53;;;;;;;5.28;2.40;;;21.80;99.90;;;;;;4914289;29;20214;-76
2022/08/28 09:12:23;;;;;;;5.55;2.70;;;21.90;99.90;;;;;;4949486;29;20178;-75
2022/08/28 09:15:03;;;;;;;5.75;2.63;;;21.90;99.90;;;;;;4942053;29;20175;-77
2022/08/28 09:17:53;;;;;;;4.95;2.35;;;21.90;99.90;;;;;;4954891;29;20176;-76
2022/08/28 09:20:26;;;;;;;4.72;2.53;;;21.90;99.90;;;;;;4947142;29;20221;-76
2022/08/28 09:22:52;;;;;;;4.22;2.35;;;22.00;99.90;;;;;;4942440;29;20186;-76
2022/08/28 09:25:43;;;;;;;5.55;2.80;;;22.00;99.90;;;;;;4948214;29;20230;-77
2022/08/28 09:28:12;;;;;;;6.22;2.25;;;22.00;99.90;;;;;;4948036;29;20242;-76
2022/08/28 09:30:39;;;;;;;4.70;2.30;;;22.00;99.90;;;;;;4948172;29;20213;-76
2022/08/28 09:33:09;;;;;;;4.90;2.40;;;22.10;99.90;;;;;;4924578;29;20178;-73
2022/08/28 09:35:40;;;;;;;3.83;2.10;;;22.10;99.90;;;;;;4955274;29;20174;-77
2022/08/28 09:38:23;;;;;;;4.88;2.20;;;22.10;99.90;;;;;;4949836;29;20174;-79
2022/08/28 09:43:46;;;;;;;6.05;2.30;;;22.20;99.90;;;;;;4927028;29;20381;-75
2022/08/28 09:46:23;;;;;;;3.85;2.20;;;22.30;99.90;;;;;;4921381;29;20221;-75
2022/08/28 09:48:51;;;;;;;5.28;2.40;;;22.30;99.90;;;;;;4946127;29;20263;-76
2022/08/28 09:51:19;;;;;;;3.75;2.28;;;22.40;99.90;;;;;;4949044;29;20200;-73
2022/08/28 09:53:52;;;;;;;3.58;2.10;;;22.40;99.90;;;;;;4939928;29;20182;-76
2022/08/28 09:56:23;;;;;;;5.70;2.28;;;22.50;99.90;;;;;;4923864;29;20186;-76
2022/08/28 09:58:53;;;;;;;3.90;2.28;;;22.60;99.90;;;;;;4930086;29;20233;-73
2022/08/28 10:01:40;;;;;;;4.45;2.30;;;22.70;99.90;;;;;;4939572;29;20182;-74
2022/08/28 10:04:25;;;;;;;4.22;2.15;;;22.80;99.90;;;;;;4933238;29;20248;-72
2022/08/28 10:06:52;;;;;;;3.72;2.25;;;23.00;99.90;;;;;;4938442;29;20277;-73
2022/08/28 10:09:24;;;;;;;3.00;1.63;;;23.60;99.90;;;;;;4936311;29;20264;-73
2022/08/28 10:12:04;;;;;;;4.03;1.90;;;24.20;99.90;;;;;;4935929;29;20186;-69
2022/08/28 10:14:37;;;;;;;3.88;1.98;;;24.80;99.70;;;;;;4933542;29;20186;-72
2022/08/28 10:17:23;;;;;;;4.10;1.95;;;25.30;98.40;;;;;;4930941;29;20205;-71
2022/08/28 10:20:10;;;;;;;3.55;1.98;;;25.80;97.50;;;;;;4938329;29;20190;-71
2022/08/28 10:23:18;;;;;;;3.20;1.80;;;26.40;97.20;;;;;;4943471;29;20206;-72
2022/08/28 10:26:23;;;;;;;2.55;1.77;;;26.80;95.60;;;;;;4936462;29;20206;-72
2022/08/28 10:29:02;;;;;;;4.70;1.90;;;27.30;94.40;;;;;;4947171;29;20217;-73
2022/08/28 10:31:45;;;;;;;5.35;1.92;;;27.60;89.60;;;;;;4963768;29;20184;-70
2022/08/28 10:34:26;;;;;;;3.95;1.90;;;27.80;91.30;;;;;;4950899;29;20181;-74
2022/08/28 10:37:21;;;;;;;3.38;1.70;;;27.90;91.20;;;;;;4941793;29;20205;-70
2022/08/28 10:39:52;;;;;;;2.85;1.40;;;28.00;88.70;;;;;;4903507;29;20199;-75
2022/08/28 10:42:24;;;;;;;4.43;2.00;;;28.10;90.90;;;;;;4948454;29;20178;-73
2022/08/28 10:44:57;;;;;;;4.10;1.75;;;28.30;88.80;;;;;;4944092;29;20205;-74
2022/08/28 10:47:27;;;;;;;4.68;1.90;;;28.40;87.80;;;;;;4946429;29;20309;-73
2022/08/28 10:50:00;;;;;;;4.43;1.90;;;28.50;89.50;;;;;;4954947;29;20178;-73
2022/08/28 10:52:37;;;;;;;4.68;1.73;;;28.60;89.80;;;;;;4932233;29;20198;-72
2022/08/28 10:55:13;;;;;;;3.00;1.42;;;28.70;86.90;;;;;;4945467;29;20181;-73
2022/08/28 10:57:52;;;;;;;3.20;1.77;;;28.80;87.00;;;;;;4937676;29;20222;-71
2022/08/28 11:00:22;;;;;;;2.58;1.73;;;28.80;86.60;;;;;;4948787;29;20213;-73
2022/08/28 11:02:56;;;;;;;4.47;2.08;;;28.90;85.30;;;;;;4973063;29;20180;-73
2022/08/28 11:05:25;;;;;;;3.83;1.80;;;29.00;82.40;;;;;;4932645;29;20411;-73
2022/08/28 11:07:58;;;;;;;4.47;1.73;;;28.90;84.60;;;;;;4922848;29;20200;-72
2022/08/28 11:10:35;;;;;;;4.07;1.50;;;28.90;82.10;;;;;;4939793;29;20174;-73
2022/08/28 11:13:04;;;;;;;3.42;1.90;;;28.80;79.90;;;;;;4948675;29;20206;-72
2022/08/28 11:15:32;;;;;;;3.67;2.03;;;28.70;82.50;;;;;;4926250;29;20185;-77
2022/08/28 11:18:13;;;;;;;4.18;1.90;;;28.60;82.90;;;;;;4928732;29;20241;-74
2022/08/28 11:20:45;;;;;;;3.80;1.85;;;28.60;79.90;;;;;;4944817;29;20209;-72
2022/08/28 11:23:29;;;;;;;4.40;2.03;;;28.50;80.80;;;;;;4922704;29;20250;-81
2022/08/28 11:26:07;;;;;;;3.22;1.95;;;28.50;78.80;;;;;;4928384;29;20190;-80
2022/08/28 11:28:33;;;;;;;5.25;1.52;;;28.30;78.60;;;;;;4933108;29;20185;-72
2022/08/28 11:31:05;;;;;;;3.72;1.63;;;28.20;80.40;;;;;;4942951;29;20216;-80
2022/08/28 11:33:42;;;;;;;6.43;1.52;;;28.10;79.00;;;;;;4933132;29;20184;-74
2022/08/28 11:36:12;;;;;;;4.25;1.95;;;28.10;79.80;;;;;;4932222;29;20178;-77
2022/08/28 11:38:40;;;;;;;3.25;1.60;;;28.00;80.60;;;;;;4930584;29;20289;-81
2022/08/28 11:41:20;;;;;;;3.67;1.38;;;28.00;79.70;;;;;;4933684;29;20216;-76
2022/08/28 11:44:00;;;;;;;3.92;1.85;;;28.00;80.30;;;;;;4926808;29;20201;-76
2022/08/28 11:46:31;;;;;;;3.55;1.70;;;28.00;80.30;;;;;;4931234;29;20189;-79
2022/08/28 11:49:25;;;;;;;3.53;1.58;;;28.10;78.50;;;;;;4930602;29;20170;-72
2022/08/28 11:52:21;;;;;;;4.75;1.98;;;28.10;77.90;;;;;;4933407;29;20238;-80
2022/08/28 11:55:01;;;;;;;2.63;1.58;;;28.10;74.30;;;;;;4941156;29;20186;-82
2022/08/28 11:57:57;;;;;;;3.08;1.50;;;28.10;79.00;;;;;;4925909;29;20206;-78
2022/08/28 12:00:45;;;;;;;2.72;1.52;;;28.20;70.10;;;;;;4942157;29;20410;-78
2022/08/28 12:03:25;;;;;;;2.33;1.50;;;28.20;73.60;;;;;;4941926;29;20194;-79
2022/08/28 12:06:01;;;;;;;2.90;1.80;;;28.30;77.20;;;;;;4946235;29;20178;-76
2022/08/28 12:08:51;;;;;;;2.13;1.40;;;28.30;74.90;;;;;;4947417;29;20177;-74
2022/08/28 12:11:39;;;;;;;3.03;1.50;;;28.30;75.00;;;;;;4924958;29;20190;-73
2022/08/28 12:14:07;;;;;;;3.60;1.70;;;28.40;74.60;;;;;;4941537;29;20193;-72
2022/08/28 12:16:58;;;;;;;2.88;1.50;;;28.40;75.90;;;;;;4939859;29;20206;-79
2022/08/28 12:19:39;;;;;;;3.83;1.55;;;28.40;73.10;;;;;;4957584;29;20190;-73
2022/08/28 12:22:09;;;;;;;3.83;1.50;;;28.40;73.90;;;;;;4934213;29;20198;-80
2022/08/28 12:24:45;;;;;;;3.58;1.60;;;28.40;75.90;;;;;;4946714;29;20194;-78
2022/08/28 12:27:15;;;;;;;3.63;1.70;;;28.50;74.40;;;;;;4953228;29;20170;-78
2022/08/28 12:29:52;;;;;;;2.78;1.48;;;28.50;74.00;;;;;;4945484;29;20182;-79
2022/08/28 12:32:30;;;;;;;2.55;1.40;;;28.40;71.90;;;;;;4949714;29;20181;-80
2022/08/28 12:34:59;;;;;;;3.08;1.55;;;28.40;69.10;;;;;;4954150;29;20225;-76
2022/08/28 12:37:25;;;;;;;4.63;1.70;;;28.50;71.90;;;;;;4944349;29;20197;-73
2022/08/28 12:39:51;;;;;;;3.40;1.65;;;28.50;72.30;;;;;;4936263;29;20501;-73
2022/08/28 12:42:21;;;;;;;2.22;1.13;;;28.60;73.00;;;;;;4952905;29;20237;-80
2022/08/28 12:44:47;;;;;;;2.65;1.20;;;28.70;73.00;;;;;;4956441;29;20212;-78
2022/08/28 12:47:19;;;;;;;3.55;1.30;;;28.80;72.80;;;;;;4929945;29;20170;-76
2022/08/28 12:49:45;;;;;;;2.70;1.50;;;29.00;71.40;;;;;;4948063;28;20178;-76
2022/08/28 12:52:17;;;;;;;2.28;1.08;;;29.20;72.80;;;;;;4941042;29;20221;-82
2022/08/28 12:54:50;;;;;;;2.97;1.30;;;29.40;71.30;;;;;;4944284;29;20202;-76
2022/08/28 12:57:19;;;;;;;2.45;1.23;;;29.50;69.00;;;;;;4951979;29;20268;-76
2022/08/28 12:59:50;;;;;;;3.17;1.40;;;29.70;70.90;;;;;;4944539;29;20192;-76
2022/08/28 13:02:32;;;;;;;2.97;1.60;;;29.80;70.20;;;;;;4931121;29;20193;-76
2022/08/28 13:05:01;;;;;;;5.80;1.58;;;30.00;67.00;;;;;;4921573;29;20197;-74
2022/08/28 13:07:39;;;;;;;2.28;1.50;;;30.10;68.30;;;;;;4933826;29;20271;-72
2022/08/28 13:10:20;;;;;;;2.10;1.42;;;30.20;67.10;;;;;;4951679;29;20221;-73
2022/08/28 13:12:55;;;;;;;2.45;1.38;;;30.20;65.60;;;;;;4946301;29;20188;-76
2022/08/28 13:15:41;;;;;;;3.20;1.50;;;30.20;64.60;;;;;;4924548;29;20205;-80
2022/08/28 13:18:07;;;;;;;2.83;1.70;;;30.10;62.00;;;;;;4934932;29;20187;-78
2022/08/28 13:20:35;;;;;;;2.25;1.30;;;30.10;65.00;;;;;;4949905;29;20326;-79